Time;durP1;ratioP1;P1;durP2;ratioP2;P2;SDS_P1;SDS_P2;PMS_P1;PMS_P2;Temp;Humidity;BMP_temperature;BMP_pressure;BME280_temperature;BME280_humidity;BME280_pressure;Samples;Min_cycle;Max_cycle;Signal;HPM_P1;HPM_P2
2023/01/25 00:00:45;;;;;;;44.10;24.08;;;-0.40;99.90;;;;;;4967946;28;20029;-69
2023/01/25 00:03:13;;;;;;;46.50;24.38;;;-0.40;99.90;;;;;;4939955;28;20037;-68
2023/01/25 00:05:40;;;;;;;47.72;24.05;;;-0.40;99.90;;;;;;4970991;28;20050;-68
2023/01/25 00:08:06;;;;;;;49.25;25.38;;;-0.50;99.90;;;;;;4965836;28;20388;-68
2023/01/25 00:10:34;;;;;;;45.50;24.67;;;-0.50;99.90;;;;;;4969684;28;20045;-69
2023/01/25 00:13:00;;;;;;;51.15;24.15;;;-0.50;99.90;;;;;;4969289;28;20640;-69
2023/01/25 00:15:26;;;;;;;47.13;24.27;;;-0.50;99.90;;;;;;4967790;28;20034;-69
2023/01/25 00:17:52;;;;;;;47.78;24.40;;;-0.50;99.90;;;;;;4984296;28;20513;-69
2023/01/25 00:20:18;;;;;;;46.35;24.75;;;-0.50;99.90;;;;;;4954024;28;20041;-69
2023/01/25 00:22:43;;;;;;;42.75;22.13;;;-0.50;99.90;;;;;;4961647;28;20037;-69
2023/01/25 00:25:09;;;;;;;45.03;23.08;;;-0.50;99.90;;;;;;4967549;28;20415;-68
2023/01/25 00:27:36;;;;;;;47.45;24.02;;;-0.50;99.90;;;;;;4970273;28;20038;-68
2023/01/25 00:30:02;;;;;;;47.63;23.58;;;-0.60;99.90;;;;;;4955184;28;20033;-69
2023/01/25 00:32:41;;;;;;;51.78;25.48;;;-0.60;99.90;;;;;;4969920;28;20057;-68
2023/01/25 00:35:11;;;;;;;46.63;24.20;;;-0.50;99.90;;;;;;4987894;28;20032;-69
2023/01/25 00:37:43;;;;;;;44.65;24.13;;;-0.50;99.90;;;;;;4983709;28;20046;-69
2023/01/25 00:40:10;;;;;;;48.03;23.75;;;-0.50;99.90;;;;;;4983925;28;20611;-69
2023/01/25 00:42:36;;;;;;;47.35;23.85;;;-0.60;99.90;;;;;;4988325;28;20045;-68
2023/01/25 00:45:02;;;;;;;48.65;23.75;;;-0.50;99.90;;;;;;4969119;28;20045;-69
2023/01/25 00:47:28;;;;;;;53.67;23.45;;;-0.50;99.90;;;;;;4986619;28;20034;-68
2023/01/25 00:49:54;;;;;;;47.30;21.88;;;-0.50;99.90;;;;;;4988365;28;20400;-69
2023/01/25 00:52:21;;;;;;;51.50;25.80;;;-0.50;99.90;;;;;;4987744;28;20034;-69
2023/01/25 00:54:48;;;;;;;44.13;24.02;;;-0.50;99.90;;;;;;4987819;28;20053;-68
2023/01/25 00:57:16;;;;;;;45.65;23.13;;;-0.50;99.90;;;;;;4985326;28;20426;-69
2023/01/25 00:59:43;;;;;;;45.72;22.75;;;-0.50;99.90;;;;;;4969407;28;20050;-69
2023/01/25 01:02:10;;;;;;;48.53;24.60;;;-0.50;99.90;;;;;;4998693;28;20061;-69
2023/01/25 01:04:36;;;;;;;49.60;24.17;;;-0.50;99.90;;;;;;4968530;28;20100;-68
2023/01/25 01:07:02;;;;;;;45.10;23.90;;;-0.60;99.90;;;;;;4980731;28;20546;-69
2023/01/25 01:09:28;;;;;;;45.50;22.80;;;-0.60;99.90;;;;;;4966713;28;20044;-69
2023/01/25 01:11:53;;;;;;;50.70;26.02;;;-0.60;99.90;;;;;;4986055;28;20037;-69
2023/01/25 01:14:20;;;;;;;44.95;23.85;;;-0.60;99.90;;;;;;4955417;28;20073;-68
2023/01/25 01:16:46;;;;;;;48.70;26.00;;;-0.60;99.90;;;;;;4956162;28;20040;-69
2023/01/25 01:19:12;;;;;;;46.78;24.90;;;-0.50;99.90;;;;;;4967532;28;20411;-69
2023/01/25 01:21:38;;;;;;;48.00;24.13;;;-0.50;99.90;;;;;;4953507;28;20487;-69
2023/01/25 01:24:04;;;;;;;45.30;23.35;;;-0.50;99.90;;;;;;4988149;28;20041;-69
2023/01/25 01:26:30;;;;;;;50.03;25.73;;;-0.50;99.90;;;;;;4972077;28;20054;-69
2023/01/25 01:28:57;;;;;;;52.20;25.30;;;-0.50;99.90;;;;;;4992180;28;20041;-68
2023/01/25 01:31:23;;;;;;;46.70;24.75;;;-0.50;99.90;;;;;;4981467;28;20034;-69
2023/01/25 01:33:50;;;;;;;50.38;25.70;;;-0.50;99.90;;;;;;4987706;28;20044;-69
2023/01/25 01:36:17;;;;;;;49.20;25.75;;;-0.50;99.90;;;;;;4989657;28;20423;-69
2023/01/25 01:38:44;;;;;;;52.08;26.25;;;-0.50;99.90;;;;;;4989714;28;20045;-69
2023/01/25 01:41:10;;;;;;;50.63;26.15;;;-0.50;99.90;;;;;;4968942;28;20042;-68
2023/01/25 01:43:36;;;;;;;48.05;23.52;;;-0.50;99.90;;;;;;4991208;28;20053;-69
2023/01/25 01:46:09;;;;;;;50.42;24.50;;;-0.50;99.90;;;;;;4991474;28;20502;-69
2023/01/25 01:48:56;;;;;;;49.95;22.20;;;-0.60;99.90;;;;;;4990833;28;20045;-69
2023/01/25 01:51:42;;;;;;;50.13;25.03;;;-0.60;99.90;;;;;;4988357;28;20536;-68
2023/01/25 01:54:10;;;;;;;46.17;22.92;;;-0.60;99.90;;;;;;4991510;28;20129;-68
2023/01/25 01:56:46;;;;;;;49.67;24.92;;;-0.70;99.90;;;;;;4973268;28;20499;-68
2023/01/25 01:59:12;;;;;;;49.17;24.52;;;-0.70;99.90;;;;;;4985176;28;20042;-69
2023/01/25 02:01:39;;;;;;;47.42;24.85;;;-0.70;99.90;;;;;;4972907;28;20037;-68
2023/01/25 02:04:08;;;;;;;49.38;24.15;;;-0.70;99.90;;;;;;4986788;28;20138;-69
2023/01/25 02:06:49;;;;;;;47.83;25.10;;;-0.70;99.90;;;;;;4973503;28;20145;-69
2023/01/25 02:09:20;;;;;;;52.05;26.58;;;-0.70;99.90;;;;;;4987058;28;20197;-69
2023/01/25 02:11:49;;;;;;;48.95;24.75;;;-0.70;99.90;;;;;;4990313;28;20119;-68
2023/01/25 02:14:17;;;;;;;52.72;24.17;;;-0.60;99.90;;;;;;4988689;28;20099;-69
2023/01/25 02:16:44;;;;;;;48.83;25.15;;;-0.70;99.90;;;;;;4990700;28;20111;-68
2023/01/25 02:19:16;;;;;;;52.85;25.73;;;-0.60;99.90;;;;;;4971749;28;20045;-68
2023/01/25 02:21:44;;;;;;;53.20;25.42;;;-0.50;99.90;;;;;;4972753;28;20100;-69
2023/01/25 02:24:27;;;;;;;49.42;24.35;;;-0.50;99.90;;;;;;4974571;28;20398;-68
2023/01/25 02:26:53;;;;;;;49.33;26.20;;;-0.30;99.90;;;;;;4988098;28;20069;-69
2023/01/25 02:29:22;;;;;;;48.08;25.02;;;-0.60;99.90;;;;;;4986240;28;20311;-69
2023/01/25 02:31:51;;;;;;;50.20;25.83;;;-0.60;99.90;;;;;;4970447;28;20046;-69
2023/01/25 02:34:17;;;;;;;55.90;27.63;;;-0.60;99.90;;;;;;4988923;28;20066;-68
2023/01/25 02:36:43;;;;;;;52.30;25.35;;;-0.60;99.90;;;;;;4957686;28;20045;-68
2023/01/25 02:39:16;;;;;;;54.13;27.08;;;-0.60;99.90;;;;;;4971313;28;20053;-69
2023/01/25 02:41:46;;;;;;;52.22;26.42;;;-0.60;99.90;;;;;;4992044;28;20049;-68
2023/01/25 02:44:28;;;;;;;54.72;27.35;;;-0.60;99.90;;;;;;4981406;28;20046;-69
2023/01/25 02:46:54;;;;;;;50.25;25.38;;;-0.60;99.90;;;;;;4988655;28;20030;-69
2023/01/25 02:49:20;;;;;;;51.28;25.77;;;-0.60;99.90;;;;;;4967917;28;20096;-69
2023/01/25 02:51:49;;;;;;;51.65;25.90;;;-0.60;99.90;;;;;;4990528;28;20052;-68
2023/01/25 02:54:17;;;;;;;54.88;26.77;;;-0.70;99.90;;;;;;4989962;28;20113;-69
2023/01/25 02:56:43;;;;;;;52.97;26.92;;;-0.70;99.90;;;;;;4954723;28;20411;-69
2023/01/25 02:59:12;;;;;;;49.83;25.50;;;-0.70;99.90;;;;;;4985271;28;20056;-69
2023/01/25 03:01:39;;;;;;;53.10;26.55;;;-0.70;99.90;;;;;;4986597;28;20513;-68
2023/01/25 03:04:05;;;;;;;53.58;28.17;;;-0.70;99.90;;;;;;4987205;28;20037;-69
2023/01/25 03:06:32;;;;;;;55.67;28.30;;;-0.70;99.90;;;;;;4983766;28;20046;-68
2023/01/25 03:08:58;;;;;;;57.03;28.13;;;-0.70;99.90;;;;;;4969560;28;20517;-69
2023/01/25 03:11:24;;;;;;;59.13;28.55;;;-0.70;99.90;;;;;;4981737;28;20049;-68
2023/01/25 03:13:49;;;;;;;59.63;28.52;;;-0.70;99.90;;;;;;4980719;28;20404;-68
2023/01/25 03:16:15;;;;;;;56.95;28.38;;;-0.70;99.90;;;;;;4980867;28;20034;-69
2023/01/25 03:18:42;;;;;;;60.33;27.35;;;-0.50;99.90;;;;;;4985126;28;20038;-69
2023/01/25 03:21:09;;;;;;;54.45;27.55;;;-0.70;99.90;;;;;;4984018;28;20042;-68
2023/01/25 03:23:35;;;;;;;53.28;25.35;;;-0.70;99.90;;;;;;5003215;28;20484;-68
2023/01/25 03:26:11;;;;;;;59.60;27.75;;;-0.70;99.90;;;;;;4969151;28;20048;-69
2023/01/25 03:28:38;;;;;;;58.47;28.33;;;-0.70;99.90;;;;;;4988439;28;20541;-68
2023/01/25 03:31:05;;;;;;;61.03;28.83;;;-0.70;99.90;;;;;;4987655;28;20116;-69
2023/01/25 03:33:31;;;;;;;53.28;26.85;;;-0.70;99.90;;;;;;4987251;28;20065;-68
2023/01/25 03:35:57;;;;;;;57.63;28.73;;;-0.70;99.90;;;;;;4988476;28;20042;-69
2023/01/25 03:38:23;;;;;;;61.25;28.98;;;-0.70;99.90;;;;;;4970732;28;20499;-68
2023/01/25 03:40:48;;;;;;;59.60;28.65;;;-0.70;99.90;;;;;;4985111;28;20057;-68
2023/01/25 03:43:15;;;;;;;57.83;26.58;;;-0.70;99.90;;;;;;4966511;28;20038;-68
2023/01/25 03:45:40;;;;;;;56.47;26.77;;;-0.70;99.90;;;;;;4988418;28;20935;-68
2023/01/25 03:48:06;;;;;;;55.67;26.70;;;-0.70;99.90;;;;;;4985304;28;20217;-69
2023/01/25 03:50:32;;;;;;;63.30;28.30;;;-0.80;99.90;;;;;;4982132;28;20124;-68
2023/01/25 03:53:04;;;;;;;55.53;27.17;;;-0.80;99.90;;;;;;4980793;28;20046;-68
2023/01/25 03:55:30;;;;;;;55.28;27.55;;;-0.70;99.90;;;;;;4985072;28;20042;-68
2023/01/25 03:57:58;;;;;;;54.85;25.27;;;-0.80;99.90;;;;;;4972290;28;20160;-69
2023/01/25 04:00:24;;;;;;;46.28;23.55;;;-0.70;99.90;;;;;;4955238;28;20491;-69
2023/01/25 04:02:50;;;;;;;49.47;24.90;;;-0.80;99.90;;;;;;4970894;28;20069;-68
2023/01/25 04:05:16;;;;;;;51.17;26.15;;;-0.70;99.90;;;;;;4983059;28;20042;-69
2023/01/25 04:07:41;;;;;;;51.00;25.50;;;-0.80;99.90;;;;;;4967701;28;20064;-69
2023/01/25 04:10:08;;;;;;;47.17;23.13;;;-0.80;99.90;;;;;;4968470;28;20175;-68
2023/01/25 04:12:34;;;;;;;50.40;24.65;;;-0.80;99.90;;;;;;4969253;28;20037;-69
2023/01/25 04:14:59;;;;;;;49.22;24.13;;;-0.70;99.90;;;;;;5004052;28;20088;-68
2023/01/25 04:17:25;;;;;;;51.60;24.60;;;-0.70;99.90;;;;;;4970604;28;20038;-68
2023/01/25 04:19:51;;;;;;;48.63;24.08;;;-0.50;99.90;;;;;;4987847;28;20442;-68
2023/01/25 04:22:17;;;;;;;46.75;23.20;;;-0.80;99.90;;;;;;4988842;28;20064;-68
2023/01/25 04:24:43;;;;;;;50.53;24.55;;;-0.90;99.90;;;;;;4973110;28;20178;-69
2023/01/25 04:27:09;;;;;;;53.00;26.40;;;-0.80;99.90;;;;;;4971476;28;20042;-68
2023/01/25 04:29:35;;;;;;;51.47;25.27;;;-0.80;99.90;;;;;;4966700;28;20121;-68
2023/01/25 04:32:01;;;;;;;51.35;24.38;;;-0.80;99.90;;;;;;4986649;28;20564;-68
2023/01/25 04:34:27;;;;;;;52.42;25.00;;;-0.80;99.90;;;;;;4954833;28;20038;-68
2023/01/25 04:36:52;;;;;;;50.03;24.48;;;-0.80;99.90;;;;;;4966169;28;20034;-68
2023/01/25 04:39:19;;;;;;;54.40;26.00;;;-0.80;99.90;;;;;;4987431;28;20586;-69
2023/01/25 04:41:45;;;;;;;54.78;26.48;;;-0.50;99.90;;;;;;4971686;28;20038;-68
2023/01/25 04:44:10;;;;;;;53.75;27.85;;;-0.80;99.90;;;;;;4947748;28;20080;-68
2023/01/25 04:46:36;;;;;;;57.13;27.13;;;-0.80;99.90;;;;;;4983260;28;20065;-68
2023/01/25 04:49:02;;;;;;;54.28;26.40;;;-0.80;99.90;;;;;;4987282;28;20064;-68
2023/01/25 04:51:28;;;;;;;57.70;28.15;;;-0.80;99.90;;;;;;4955993;28;20088;-68
2023/01/25 04:53:54;;;;;;;56.55;27.75;;;-0.80;99.90;;;;;;4969315;28;20124;-68
2023/01/25 04:56:19;;;;;;;62.75;27.60;;;-0.90;99.90;;;;;;4986831;28;20048;-68
2023/01/25 04:58:45;;;;;;;58.17;28.15;;;-0.90;99.90;;;;;;4984201;28;20030;-68
2023/01/25 05:01:11;;;;;;;61.20;29.13;;;-0.90;99.90;;;;;;4987446;28;20042;-68
2023/01/25 05:03:36;;;;;;;64.68;29.42;;;-0.60;99.90;;;;;;4965618;28;20699;-68
2023/01/25 05:06:02;;;;;;;65.18;30.35;;;-0.80;99.90;;;;;;4951409;28;20460;-68
2023/01/25 05:08:28;;;;;;;69.70;30.27;;;-0.90;99.90;;;;;;4951388;28;20045;-69
2023/01/25 05:10:54;;;;;;;65.53;30.83;;;-0.90;99.90;;;;;;4983667;28;20042;-69
2023/01/25 05:13:20;;;;;;;67.85;30.52;;;-0.90;99.90;;;;;;4971742;28;20167;-68
2023/01/25 05:15:45;;;;;;;60.10;27.38;;;-0.80;99.90;;;;;;4970219;28;20037;-68
2023/01/25 05:18:11;;;;;;;60.30;28.25;;;-0.80;99.90;;;;;;4990345;28;20046;-68
2023/01/25 05:20:37;;;;;;;58.00;27.13;;;-0.80;99.90;;;;;;4988502;28;20483;-68
2023/01/25 05:23:03;;;;;;;59.70;28.70;;;-0.80;99.90;;;;;;4992820;28;20076;-68
2023/01/25 05:28:13;;;;;;;54.05;26.65;;;-0.80;99.90;;;;;;4988046;28;20226;-68
2023/01/25 05:30:38;;;;;;;54.58;25.50;;;-0.50;99.90;;;;;;4969638;28;20466;-68
2023/01/25 05:33:04;;;;;;;50.90;24.25;;;-0.80;99.90;;;;;;4968852;28;20041;-68
2023/01/25 05:35:30;;;;;;;50.92;24.75;;;-0.80;99.90;;;;;;4975675;28;20490;-68
2023/01/25 05:37:57;;;;;;;49.97;24.80;;;-0.90;99.90;;;;;;4991201;28;20037;-68
2023/01/25 05:40:24;;;;;;;48.83;24.05;;;-0.90;99.90;;;;;;4970793;28;20392;-68
2023/01/25 05:42:59;;;;;;;56.42;26.88;;;-0.90;99.90;;;;;;4974398;28;20547;-68
2023/01/25 05:45:25;;;;;;;53.47;26.15;;;-0.90;99.90;;;;;;4968537;28;20164;-68
2023/01/25 05:47:53;;;;;;;48.17;24.02;;;-0.90;99.90;;;;;;4968504;28;20042;-68
2023/01/25 05:50:19;;;;;;;49.85;23.77;;;-0.90;99.90;;;;;;4989958;28;20058;-68
2023/01/25 05:52:45;;;;;;;51.67;24.02;;;-0.90;99.90;;;;;;4987555;28;20042;-68
2023/01/25 05:55:11;;;;;;;46.75;22.17;;;-0.90;99.90;;;;;;4975321;28;20042;-68
2023/01/25 05:57:39;;;;;;;47.47;23.08;;;-0.90;99.90;;;;;;4964332;28;20046;-68
2023/01/25 06:00:06;;;;;;;46.13;22.10;;;-0.90;99.90;;;;;;4986445;28;20050;-68
2023/01/25 06:02:32;;;;;;;46.97;22.92;;;-0.90;99.90;;;;;;4989598;28;20044;-68
2023/01/25 06:04:58;;;;;;;48.75;22.55;;;-0.90;99.90;;;;;;4975449;28;20042;-68
2023/01/25 06:07:24;;;;;;;46.55;23.50;;;-0.90;99.90;;;;;;4965049;28;20461;-68
2023/01/25 06:09:50;;;;;;;47.05;23.30;;;-0.90;99.90;;;;;;4989992;28;20040;-68
2023/01/25 06:12:22;;;;;;;51.85;25.13;;;-0.90;99.90;;;;;;4989458;28;20041;-68
2023/01/25 06:14:47;;;;;;;49.22;23.75;;;-0.90;99.90;;;;;;4973118;28;20042;-68
2023/01/25 06:17:13;;;;;;;48.55;23.40;;;-0.90;99.90;;;;;;4972108;28;20045;-68
2023/01/25 06:19:39;;;;;;;49.40;24.27;;;-0.90;99.90;;;;;;4986792;28;20365;-69
2023/01/25 06:22:08;;;;;;;48.47;24.52;;;-0.90;99.90;;;;;;4973656;28;20499;-68
2023/01/25 06:24:33;;;;;;;47.40;24.05;;;-0.90;99.90;;;;;;4985569;28;20137;-68
2023/01/25 06:26:59;;;;;;;44.28;22.73;;;-0.90;99.90;;;;;;4963544;28;20059;-68
2023/01/25 06:29:25;;;;;;;43.03;22.40;;;-0.60;99.90;;;;;;4971023;28;20130;-68
2023/01/25 06:31:50;;;;;;;46.88;23.15;;;-0.60;99.90;;;;;;4972515;28;20366;-68
2023/01/25 06:34:16;;;;;;;54.78;23.88;;;-0.70;99.90;;;;;;4973941;28;20041;-68
2023/01/25 06:36:42;;;;;;;45.25;22.73;;;-1.00;99.90;;;;;;4995793;28;20037;-68
2023/01/25 06:39:08;;;;;;;52.45;23.15;;;-0.80;99.90;;;;;;4984161;28;20491;-68
2023/01/25 06:41:34;;;;;;;47.22;24.10;;;-1.00;99.90;;;;;;4988110;28;20042;-68
2023/01/25 06:44:01;;;;;;;48.40;23.80;;;-1.00;99.90;;;;;;4985316;28;20139;-68
2023/01/25 06:46:30;;;;;;;49.83;24.02;;;-1.00;99.90;;;;;;4969305;28;20038;-68
2023/01/25 06:48:56;;;;;;;49.78;24.50;;;-1.00;99.90;;;;;;4985751;28;20119;-68
2023/01/25 06:51:24;;;;;;;52.85;23.15;;;-1.00;99.90;;;;;;4985451;28;20156;-68
2023/01/25 06:53:49;;;;;;;49.08;23.88;;;-1.00;99.90;;;;;;4990253;28;20038;-68
2023/01/25 06:56:18;;;;;;;51.15;24.17;;;-1.00;99.90;;;;;;4993573;28;20072;-68
2023/01/25 06:58:45;;;;;;;46.17;22.67;;;-1.00;99.90;;;;;;4978166;28;20511;-68
2023/01/25 07:01:18;;;;;;;50.92;23.48;;;-1.00;99.90;;;;;;4972278;28;20121;-68
2023/01/25 07:03:48;;;;;;;49.85;24.67;;;-1.00;99.90;;;;;;4989278;28;20046;-68
2023/01/25 07:06:14;;;;;;;47.20;23.85;;;-1.00;99.90;;;;;;4989893;28;20491;-68
2023/01/25 07:08:40;;;;;;;50.70;24.13;;;-1.00;99.90;;;;;;4989140;28;20060;-68
2023/01/25 07:11:12;;;;;;;47.88;23.88;;;-0.90;99.90;;;;;;4989696;28;20184;-68
2023/01/25 07:13:40;;;;;;;46.60;22.80;;;-1.00;99.90;;;;;;5006209;28;20394;-68
2023/01/25 07:16:09;;;;;;;49.75;24.58;;;-1.00;99.90;;;;;;4971912;28;20491;-68
2023/01/25 07:18:38;;;;;;;53.47;25.95;;;-1.00;99.90;;;;;;5006612;28;20030;-68
2023/01/25 07:21:06;;;;;;;52.65;23.73;;;-1.00;99.90;;;;;;4972844;28;20056;-68
2023/01/25 07:23:33;;;;;;;52.22;24.77;;;-1.00;99.90;;;;;;4971119;28;20130;-68
2023/01/25 07:25:59;;;;;;;41.95;21.08;;;-1.00;99.90;;;;;;4957203;28;20042;-69
2023/01/25 07:28:25;;;;;;;47.78;23.52;;;-1.00;99.90;;;;;;4985809;28;20045;-69
2023/01/25 07:30:51;;;;;;;47.03;23.77;;;-1.00;99.90;;;;;;4968587;28;20479;-68
2023/01/25 07:33:17;;;;;;;44.63;22.48;;;-1.10;99.90;;;;;;4986957;28;20041;-68
2023/01/25 07:35:43;;;;;;;42.65;22.45;;;-0.90;99.90;;;;;;4971417;28;20081;-68
2023/01/25 07:38:08;;;;;;;43.10;20.98;;;-1.10;99.90;;;;;;4973040;28;20514;-69
2023/01/25 07:40:34;;;;;;;46.15;23.20;;;-1.10;99.90;;;;;;4988626;28;20060;-68
2023/01/25 07:43:00;;;;;;;44.08;22.27;;;-1.10;99.90;;;;;;4989769;28;20049;-68
2023/01/25 07:45:29;;;;;;;43.40;21.77;;;-1.10;99.90;;;;;;4969830;28;20034;-69
2023/01/25 07:47:58;;;;;;;46.67;22.27;;;-1.10;99.90;;;;;;4987823;28;20034;-68
2023/01/25 07:50:28;;;;;;;39.95;19.25;;;-1.10;99.90;;;;;;4976733;28;20109;-69
2023/01/25 07:52:54;;;;;;;40.58;20.13;;;-1.00;99.90;;;;;;4992542;28;20041;-68
2023/01/25 07:55:20;;;;;;;41.13;19.77;;;-1.10;99.90;;;;;;4991277;28;20042;-68
2023/01/25 07:57:46;;;;;;;41.50;22.45;;;-1.10;99.90;;;;;;4992464;28;20042;-69
2023/01/25 08:00:13;;;;;;;44.67;21.17;;;-1.10;99.90;;;;;;4976308;28;20053;-68
2023/01/25 08:02:39;;;;;;;40.63;19.80;;;-1.10;99.90;;;;;;5010069;28;20037;-68
2023/01/25 08:05:05;;;;;;;37.70;19.80;;;-1.10;99.90;;;;;;4976190;28;20396;-69
2023/01/25 08:07:31;;;;;;;39.65;19.73;;;-1.10;99.90;;;;;;4992344;28;20062;-68
2023/01/25 08:09:57;;;;;;;39.95;20.52;;;-1.10;99.90;;;;;;4976138;28;20499;-69
2023/01/25 08:12:26;;;;;;;38.83;19.45;;;-1.00;99.90;;;;;;4992370;28;20044;-68
2023/01/25 08:14:52;;;;;;;37.58;18.83;;;-1.10;99.90;;;;;;4990589;28;20315;-68
2023/01/25 08:17:18;;;;;;;38.63;19.92;;;-1.10;99.90;;;;;;4992336;28;20121;-69
2023/01/25 08:19:44;;;;;;;39.30;19.92;;;-1.10;99.90;;;;;;4992325;28;20038;-68
2023/01/25 08:22:11;;;;;;;36.15;19.27;;;-0.70;99.90;;;;;;4992130;28;20045;-68
2023/01/25 08:24:37;;;;;;;39.78;21.08;;;-1.10;99.90;;;;;;4992171;28;20042;-69
2023/01/25 08:27:03;;;;;;;37.30;19.85;;;-1.10;99.90;;;;;;4989165;28;20112;-68
2023/01/25 08:29:29;;;;;;;37.58;20.83;;;-1.10;99.90;;;;;;4992140;28;20034;-68
2023/01/25 08:31:54;;;;;;;41.00;21.58;;;-1.10;99.90;;;;;;4975587;28;20506;-68
2023/01/25 08:34:23;;;;;;;43.42;21.27;;;-1.10;99.90;;;;;;4991923;28;20045;-68
2023/01/25 08:36:48;;;;;;;39.67;18.88;;;-1.10;99.90;;;;;;4975507;28;20559;-69
2023/01/25 08:39:17;;;;;;;47.83;21.92;;;-1.00;99.90;;;;;;4991286;28;20117;-68
2023/01/25 08:41:44;;;;;;;38.72;18.80;;;-1.00;99.90;;;;;;4992048;28;20049;-68
2023/01/25 08:44:12;;;;;;;41.95;18.88;;;-1.00;99.90;;;;;;4992107;28;20045;-68
2023/01/25 08:46:38;;;;;;;39.88;20.40;;;-1.00;99.90;;;;;;5008669;28;20030;-68
2023/01/25 08:49:04;;;;;;;38.22;19.25;;;-1.00;99.90;;;;;;4994687;28;20457;-68
2023/01/25 08:51:30;;;;;;;42.40;21.13;;;-1.10;99.90;;;;;;4996248;28;20068;-68
2023/01/25 08:54:00;;;;;;;39.67;19.92;;;-0.80;99.90;;;;;;4995883;28;20048;-68
2023/01/25 08:56:32;;;;;;;41.88;20.58;;;-1.10;99.90;;;;;;5012271;28;20073;-68
2023/01/25 08:59:00;;;;;;;37.95;18.80;;;-1.10;99.90;;;;;;5000652;28;20046;-68
2023/01/25 09:01:33;;;;;;;39.03;19.83;;;-1.10;99.90;;;;;;4994518;28;20037;-68
2023/01/25 09:03:59;;;;;;;42.08;19.65;;;-1.10;99.90;;;;;;4995940;28;20038;-68
2023/01/25 09:06:25;;;;;;;39.35;19.48;;;-1.10;99.90;;;;;;4994319;28;20088;-68
2023/01/25 09:08:54;;;;;;;43.20;21.05;;;-1.10;99.90;;;;;;4974435;28;20079;-68
2023/01/25 09:11:22;;;;;;;40.22;20.73;;;-1.10;99.90;;;;;;4979700;28;20099;-68
2023/01/25 09:13:48;;;;;;;45.95;22.20;;;-1.10;99.90;;;;;;4979358;28;20231;-68
2023/01/25 09:16:26;;;;;;;41.08;21.27;;;-1.10;99.90;;;;;;4985937;28;20034;-68
2023/01/25 09:18:53;;;;;;;42.05;20.58;;;-1.10;99.90;;;;;;4995576;28;20126;-68
2023/01/25 09:21:19;;;;;;;42.45;20.80;;;-1.10;99.90;;;;;;4986304;28;20040;-68
2023/01/25 09:23:48;;;;;;;43.95;21.50;;;-1.10;99.90;;;;;;4982180;28;20041;-68
2023/01/25 09:26:14;;;;;;;44.50;21.55;;;-1.00;99.90;;;;;;5003504;28;20045;-68
2023/01/25 09:28:42;;;;;;;38.38;19.50;;;-1.00;99.90;;;;;;4976761;28;20053;-68
2023/01/25 09:31:11;;;;;;;41.30;21.65;;;-1.10;99.90;;;;;;4988880;28;20099;-68
2023/01/25 09:33:38;;;;;;;42.45;21.38;;;-1.10;99.90;;;;;;4995133;28;20124;-68
2023/01/25 09:36:05;;;;;;;43.15;22.05;;;-1.10;99.90;;;;;;4995958;28;20041;-68
2023/01/25 09:38:31;;;;;;;42.17;20.05;;;-1.10;99.90;;;;;;5000683;28;20041;-68
2023/01/25 09:41:27;;;;;;;44.92;20.23;;;-1.10;99.90;;;;;;4995197;28;20505;-68
2023/01/25 09:44:08;;;;;;;47.10;22.10;;;-1.10;99.90;;;;;;4998312;28;20030;-68
2023/01/25 09:46:49;;;;;;;48.17;20.67;;;-1.10;99.90;;;;;;4994901;28;20037;-68
2023/01/25 09:49:49;;;;;;;47.22;23.23;;;-1.10;99.90;;;;;;4995078;28;20049;-68
2023/01/25 09:52:40;;;;;;;49.10;22.00;;;-1.10;99.90;;;;;;4979076;28;20088;-68
2023/01/25 09:55:15;;;;;;;44.13;21.80;;;-1.10;99.90;;;;;;4978013;28;20033;-67
2023/01/25 09:57:44;;;;;;;48.08;24.40;;;-1.00;99.90;;;;;;4994841;28;20038;-68
2023/01/25 10:00:28;;;;;;;46.30;22.58;;;-1.00;99.90;;;;;;5003206;28;20054;-68
2023/01/25 10:03:14;;;;;;;46.65;22.98;;;-1.00;99.90;;;;;;4994902;28;20045;-68
2023/01/25 10:05:49;;;;;;;48.10;23.17;;;-1.00;99.90;;;;;;4993488;28;20041;-68
2023/01/25 10:08:20;;;;;;;46.20;22.15;;;-1.00;99.90;;;;;;4994323;28;20057;-68
2023/01/25 10:10:49;;;;;;;48.08;22.92;;;-1.00;99.90;;;;;;5012558;28;20456;-68
2023/01/25 10:13:23;;;;;;;44.97;21.67;;;-1.10;99.90;;;;;;4992647;28;20041;-68
2023/01/25 10:16:21;;;;;;;44.35;21.65;;;-1.10;99.90;;;;;;4991238;28;20109;-68
2023/01/25 10:18:46;;;;;;;43.80;20.00;;;-1.20;99.90;;;;;;4975036;28;20034;-68
2023/01/25 10:21:27;;;;;;;46.60;20.20;;;-1.10;99.90;;;;;;4977569;28;20034;-68
2023/01/25 10:24:05;;;;;;;44.25;20.63;;;-1.10;99.90;;;;;;4994123;28;20104;-68
2023/01/25 10:26:36;;;;;;;49.05;22.55;;;-1.10;99.90;;;;;;4994129;28;20042;-68
2023/01/25 10:29:21;;;;;;;47.03;21.10;;;-1.10;99.90;;;;;;4994739;28;20033;-68
2023/01/25 10:31:58;;;;;;;47.90;22.23;;;-0.30;99.90;;;;;;4994379;28;20558;-68
2023/01/25 10:34:40;;;;;;;47.08;20.67;;;-1.00;99.90;;;;;;4994540;28;20034;-68
2023/01/25 10:37:11;;;;;;;43.13;20.75;;;-1.00;99.90;;;;;;4994054;28;20044;-68
2023/01/25 10:40:11;;;;;;;44.70;21.60;;;-1.10;99.90;;;;;;5003996;28;20636;-68
2023/01/25 10:42:49;;;;;;;45.65;21.00;;;-1.00;99.90;;;;;;4979413;28;20507;-68
2023/01/25 10:45:17;;;;;;;45.38;21.60;;;-0.80;99.90;;;;;;4993986;28;20492;-68
2023/01/25 10:48:06;;;;;;;45.55;21.23;;;-0.90;99.90;;;;;;4994014;28;20068;-68
2023/01/25 10:50:41;;;;;;;46.63;22.20;;;-0.90;99.90;;;;;;4970828;28;20041;-68
2023/01/25 10:53:19;;;;;;;46.63;21.80;;;-0.90;99.90;;;;;;4994129;28;20057;-68
2023/01/25 10:55:57;;;;;;;45.50;21.48;;;-0.90;99.90;;;;;;4996859;28;20590;-68
2023/01/25 10:58:35;;;;;;;40.55;20.38;;;-0.80;99.90;;;;;;4977733;28;20498;-68
2023/01/25 11:01:03;;;;;;;40.80;19.88;;;-0.80;99.90;;;;;;4993892;28;20486;-68
2023/01/25 11:03:41;;;;;;;44.03;21.17;;;-0.90;99.90;;;;;;4994024;28;20057;-68
2023/01/25 11:06:09;;;;;;;45.67;21.55;;;-0.90;99.90;;;;;;4993807;28;20980;-68
2023/01/25 11:08:41;;;;;;;42.10;21.27;;;-0.90;99.90;;;;;;4993213;28;20038;-68
2023/01/25 11:11:59;;;;;;;41.17;20.20;;;-1.00;99.90;;;;;;4990538;28;20104;-68
2023/01/25 11:14:27;;;;;;;43.50;20.80;;;-1.00;99.90;;;;;;4934359;29;20035;-68
2023/01/25 11:16:55;;;;;;;35.90;18.10;;;-1.00;99.90;;;;;;4934438;29;20086;-68
2023/01/25 11:19:31;;;;;;;40.38;19.20;;;-1.10;99.90;;;;;;4970458;28;20049;-68
2023/01/25 11:21:58;;;;;;;43.33;20.40;;;-0.70;99.90;;;;;;4995147;28;20129;-68
2023/01/25 11:24:33;;;;;;;38.03;18.65;;;-1.10;99.90;;;;;;4970207;28;20045;-68
2023/01/25 11:27:11;;;;;;;40.25;18.52;;;-1.10;99.90;;;;;;4975377;28;20042;-68
2023/01/25 11:29:39;;;;;;;39.30;19.15;;;-1.20;99.90;;;;;;4975381;28;20120;-68
2023/01/25 11:32:20;;;;;;;40.88;19.65;;;-1.10;99.90;;;;;;4970779;28;20069;-68
2023/01/25 11:34:46;;;;;;;47.65;21.17;;;-1.10;99.90;;;;;;4991479;28;20042;-68
2023/01/25 11:37:31;;;;;;;42.40;18.92;;;-0.80;99.90;;;;;;4960300;28;20037;-68
2023/01/25 11:40:15;;;;;;;42.70;21.13;;;-1.10;99.90;;;;;;4991602;28;20085;-68
2023/01/25 11:43:04;;;;;;;47.42;21.42;;;-1.10;99.90;;;;;;4990107;28;20567;-68
2023/01/25 11:46:00;;;;;;;45.28;21.65;;;-1.20;99.90;;;;;;4991154;28;20044;-68
2023/01/25 11:48:42;;;;;;;43.80;21.10;;;-1.20;99.90;;;;;;4989868;28;20038;-68
2023/01/25 11:51:25;;;;;;;43.55;21.27;;;-1.10;99.90;;;;;;4989419;28;20038;-68
2023/01/25 11:53:53;;;;;;;;;;;-1.10;99.90;;;;;;4989788;28;20045;-69
2023/01/25 11:56:40;;;;;;;43.97;22.42;;;-1.00;99.90;;;;;;4967545;28;20303;-69
2023/01/25 11:59:30;;;;;;;49.17;23.45;;;-1.00;99.90;;;;;;4978924;28;20399;-69
2023/01/25 12:02:17;;;;;;;50.80;23.45;;;-1.00;99.90;;;;;;4977047;28;20056;-68
2023/01/25 12:05:04;;;;;;;42.15;21.67;;;-1.00;99.90;;;;;;4973167;28;20423;-68
2023/01/25 12:08:25;;;;;;;45.47;20.55;;;-1.00;99.90;;;;;;4990225;28;20085;-68
2023/01/25 12:11:25;;;;;;;46.88;21.77;;;-1.00;99.90;;;;;;4976854;28;20084;-68
2023/01/25 12:14:21;;;;;;;47.13;21.67;;;-1.00;99.90;;;;;;4976461;28;20454;-68
2023/01/25 12:17:14;;;;;;;40.60;21.13;;;-1.00;99.90;;;;;;4986089;28;20053;-68
2023/01/25 12:20:01;;;;;;;45.85;22.88;;;-1.10;99.90;;;;;;4992580;28;20068;-68
2023/01/25 12:22:58;;;;;;;46.10;21.45;;;-1.00;99.90;;;;;;4990698;28;20540;-69
2023/01/25 12:25:37;;;;;;;45.47;21.50;;;-1.10;99.90;;;;;;4975972;28;20041;-69
2023/01/25 12:28:21;;;;;;;47.33;20.52;;;-1.00;99.90;;;;;;4992263;28;20406;-68
2023/01/25 12:30:58;;;;;;;45.15;20.67;;;-1.10;99.90;;;;;;4992434;28;20048;-68
2023/01/25 12:33:36;;;;;;;47.70;22.17;;;-0.90;99.90;;;;;;4975989;28;20510;-68
2023/01/25 12:36:16;;;;;;;43.50;20.85;;;-1.00;99.90;;;;;;4990194;28;20038;-68
2023/01/25 12:38:55;;;;;;;44.58;21.38;;;-1.00;99.90;;;;;;4992139;28;20041;-68
2023/01/25 12:41:43;;;;;;;47.38;22.55;;;-1.00;99.90;;;;;;4992171;28;20041;-68
2023/01/25 12:44:37;;;;;;;43.53;19.42;;;-1.00;99.90;;;;;;4992336;28;20038;-68
2023/01/25 12:47:41;;;;;;;43.17;21.65;;;-1.00;99.90;;;;;;4991023;28;20126;-68